createdAt,value
2018-01-05T00:00:46.290Z,19.84
2018-01-05T00:01:46.238Z,19.77
2018-01-05T00:02:46.216Z,19.81
2018-01-05T00:03:46.190Z,19.73
2018-01-05T00:04:46.167Z,19.71
2018-01-05T00:05:46.166Z,19.69
2018-01-05T00:06:46.135Z,19.68
2018-01-05T00:07:46.110Z,19.61
2018-01-05T00:08:46.092Z,19.62
2018-01-05T00:09:46.072Z,19.73
2018-01-05T00:10:46.085Z,19.68
2018-01-05T00:11:46.065Z,19.71
2018-01-05T00:12:46.010Z,19.69
2018-01-05T00:13:45.991Z,19.62
2018-01-05T00:14:45.972Z,19.62
2018-01-05T00:15:45.983Z,19.62
2018-01-05T00:16:45.929Z,19.63
2018-01-05T00:17:45.924Z,19.62
2018-01-05T00:18:45.893Z,19.56
2018-01-05T00:19:45.871Z,19.65
2018-01-05T00:20:45.879Z,19.58
2018-01-05T00:21:45.827Z,19.58
2018-01-05T00:22:45.836Z,19.56
2018-01-05T00:23:45.786Z,19.61
2018-01-05T00:24:45.795Z,19.61
2018-01-05T00:25:45.782Z,19.44
2018-01-05T00:26:45.722Z,19.43
2018-01-05T00:27:45.702Z,19.46
2018-01-05T00:28:45.683Z,19.48
2018-01-05T00:29:45.692Z,19.46
2018-01-05T00:30:45.640Z,19.55
2018-01-05T00:31:45.621Z,19.51
2018-01-05T00:32:45.637Z,19.47
2018-01-05T00:33:45.609Z,19.50
2018-01-05T00:34:45.592Z,19.47
2018-01-05T00:35:45.554Z,19.39
2018-01-05T00:36:45.517Z,19.47
2018-01-05T00:37:45.498Z,19.43
2018-01-05T00:38:45.478Z,19.43
2018-01-05T00:39:45.453Z,19.40
2018-01-05T00:40:45.468Z,19.46
2018-01-05T00:41:45.452Z,19.43
2018-01-05T00:42:45.396Z,19.41
2018-01-05T00:43:45.392Z,19.50
2018-01-05T00:44:45.370Z,19.44
2018-01-05T00:45:45.353Z,19.37
2018-01-05T00:46:45.325Z,19.33
2018-01-05T00:47:45.324Z,19.48
2018-01-05T00:48:45.306Z,19.39
2018-01-05T00:49:45.248Z,19.39
2018-01-05T00:50:45.247Z,19.51
2018-01-05T00:51:45.210Z,19.50
2018-01-05T00:52:45.191Z,19.29
2018-01-05T00:53:45.165Z,19.37
2018-01-05T00:54:45.150Z,19.40
2018-01-05T00:55:45.139Z,19.40
2018-01-05T00:56:45.120Z,19.36
2018-01-05T00:57:45.084Z,19.39
2018-01-05T00:58:45.065Z,19.31
2018-01-05T00:59:45.041Z,19.31
2018-01-05T01:00:45.022Z,19.32
2018-01-05T01:01:45.006Z,19.36
2018-01-05T01:02:45.024Z,19.39
2018-01-05T01:03:44.994Z,19.39
2018-01-05T01:04:44.946Z,19.36
2018-01-05T01:05:44.920Z,19.31
2018-01-05T01:06:44.932Z,19.33
2018-01-05T01:07:44.886Z,19.36
2018-01-05T01:08:44.863Z,19.36
2018-01-05T01:09:44.835Z,19.32
2018-01-05T01:10:44.814Z,19.23
2018-01-05T01:11:44.808Z,19.23
2018-01-05T01:12:44.773Z,19.32
2018-01-05T01:13:44.789Z,19.31
2018-01-05T01:14:44.737Z,19.25
2018-01-05T01:15:44.749Z,19.28
2018-01-05T01:16:44.722Z,19.23
2018-01-05T01:17:44.672Z,19.31
2018-01-05T01:18:44.684Z,19.33
2018-01-05T01:19:44.624Z,19.36
2018-01-05T01:20:44.607Z,19.43
2018-01-05T01:21:44.623Z,19.33
2018-01-05T01:22:44.603Z,19.32
2018-01-05T01:23:44.548Z,19.28
2018-01-05T01:24:44.565Z,19.21
2018-01-05T01:25:44.506Z,19.19
2018-01-05T01:26:44.487Z,19.21
2018-01-05T01:27:44.461Z,19.22
2018-01-05T01:28:44.462Z,19.14
2018-01-05T01:29:44.442Z,19.19
2018-01-05T01:30:44.400Z,19.21
2018-01-05T01:31:44.386Z,19.16
2018-01-05T01:32:44.363Z,19.21
2018-01-05T01:33:44.340Z,19.21
2018-01-05T01:34:44.356Z,19.19
2018-01-05T01:35:44.336Z,19.22
2018-01-05T01:36:44.309Z,19.22
2018-01-05T01:37:44.258Z,19.26
2018-01-05T01:38:44.251Z,19.26
2018-01-05T01:39:44.217Z,19.22
2018-01-05T01:40:44.228Z,19.22
2018-01-05T01:41:44.175Z,19.19
2018-01-05T01:42:44.154Z,19.23
2018-01-05T01:43:44.144Z,19.29
2018-01-05T01:44:44.110Z,19.32
2018-01-05T01:45:44.127Z,19.37
2018-01-05T01:46:44.070Z,19.36
2018-01-05T01:47:44.047Z,19.32
2018-01-05T01:48:44.062Z,19.40
2018-01-05T01:49:44.041Z,19.37
2018-01-05T01:50:44.022Z,19.46
2018-01-05T01:51:43.969Z,19.59
2018-01-05T01:52:43.986Z,19.46
2018-01-05T01:53:43.957Z,19.46
2018-01-05T01:54:43.943Z,19.51
2018-01-05T01:55:43.885Z,19.44
2018-01-05T01:56:43.895Z,19.41
2018-01-05T01:57:43.879Z,19.36
2018-01-05T01:58:43.844Z,19.39
2018-01-05T01:59:43.833Z,19.47
2018-01-05T02:00:43.778Z,19.47
2018-01-05T02:01:43.781Z,19.44
2018-01-05T02:02:43.737Z,19.48
2018-01-05T02:03:43.716Z,19.46
2018-01-05T02:04:43.718Z,19.51
2018-01-05T02:05:43.709Z,19.54
2018-01-05T02:06:43.657Z,19.54
2018-01-05T02:07:43.631Z,19.46
2018-01-05T02:08:43.612Z,19.46
2018-01-05T02:09:43.630Z,19.37
2018-01-05T02:10:43.574Z,19.37
2018-01-05T02:11:43.571Z,19.26
2018-01-05T02:12:43.570Z,19.44
2018-01-05T02:13:43.546Z,19.40
2018-01-05T02:14:43.509Z,19.41
2018-01-05T02:15:43.533Z,19.48
2018-01-05T02:16:43.449Z,19.40
2018-01-05T02:17:43.427Z,19.48
2018-01-05T02:18:43.442Z,19.50
2018-01-05T02:19:43.406Z,19.41
2018-01-05T02:20:43.368Z,19.46
2018-01-05T02:21:43.377Z,19.47
2018-01-05T02:22:43.326Z,19.46
2018-01-05T02:23:43.322Z,19.44
2018-01-05T02:24:43.283Z,19.56
2018-01-05T02:25:43.264Z,19.54
2018-01-05T02:26:43.245Z,19.56
2018-01-05T02:27:43.252Z,19.48
2018-01-05T02:28:43.233Z,19.48
2018-01-05T02:29:43.203Z,19.47
2018-01-05T02:30:43.163Z,19.40
2018-01-05T02:31:43.146Z,19.46
2018-01-05T02:32:43.137Z,19.54
2018-01-05T02:33:43.132Z,19.51
2018-01-05T02:34:43.077Z,19.46
2018-01-05T02:35:43.057Z,19.48
2018-01-05T02:36:43.055Z,19.46
2018-01-05T02:37:43.017Z,19.48
2018-01-05T02:38:42.994Z,19.44
2018-01-05T02:39:42.980Z,19.51
2018-01-05T02:40:42.966Z,19.43
2018-01-05T02:41:42.968Z,19.54
2018-01-05T02:42:42.949Z,19.47
2018-01-05T02:43:42.926Z,19.48
2018-01-05T02:44:42.908Z,19.55
2018-01-05T02:45:42.885Z,19.55
2018-01-05T02:46:42.866Z,19.47
2018-01-05T02:47:42.844Z,19.55
2018-01-05T02:48:42.825Z,19.46
2018-01-05T02:49:42.768Z,19.46
2018-01-05T02:50:42.782Z,19.54
2018-01-05T02:51:42.764Z,19.46
2018-01-05T02:52:42.710Z,19.40
2018-01-05T02:53:42.700Z,19.46
2018-01-05T02:54:42.666Z,19.44
2018-01-05T02:55:42.647Z,19.36
2018-01-05T02:56:42.622Z,19.33
2018-01-05T02:57:42.611Z,19.33
2018-01-05T02:58:42.616Z,19.46
2018-01-05T02:59:42.562Z,19.36
2018-01-05T03:00:42.539Z,19.39
2018-01-05T03:01:42.521Z,19.36
2018-01-05T03:02:42.501Z,19.36
2018-01-05T03:03:42.518Z,19.31
2018-01-05T03:04:42.462Z,19.40
2018-01-05T03:05:42.476Z,19.39
2018-01-05T03:06:42.417Z,19.44
2018-01-05T03:07:42.397Z,19.33
2018-01-05T03:08:42.410Z,19.46
2018-01-05T03:09:42.358Z,19.41
2018-01-05T03:10:42.348Z,19.39
2018-01-05T03:11:42.315Z,19.40
2018-01-05T03:12:42.306Z,19.23
2018-01-05T03:13:42.292Z,19.36
2018-01-05T03:14:42.270Z,19.36
2018-01-05T03:15:42.246Z,19.39
2018-01-05T03:16:42.232Z,19.39
2018-01-05T03:17:42.209Z,19.36
2018-01-05T03:18:42.169Z,19.39
2018-01-05T03:19:42.170Z,19.33
2018-01-05T03:20:42.130Z,19.37
2018-01-05T03:21:42.114Z,19.33
2018-01-05T03:22:42.087Z,19.37
2018-01-05T03:23:42.108Z,19.31
2018-01-05T03:24:42.081Z,19.36
2018-01-05T03:25:42.021Z,19.28
2018-01-05T03:26:42.008Z,19.29
2018-01-05T03:27:42.003Z,19.29
2018-01-05T03:28:41.964Z,19.22
2018-01-05T03:29:41.943Z,19.32
2018-01-05T03:30:41.960Z,19.28
2018-01-05T03:31:41.937Z,19.32
2018-01-05T03:32:41.912Z,19.28
2018-01-05T03:33:41.859Z,19.28
2018-01-05T03:34:41.844Z,19.39
2018-01-05T03:35:41.820Z,19.39
2018-01-05T03:36:41.834Z,19.29
2018-01-05T03:37:41.777Z,19.25
2018-01-05T03:38:41.760Z,19.29
2018-01-05T03:39:41.735Z,19.32
2018-01-05T03:40:41.737Z,19.33
2018-01-05T03:41:41.699Z,19.28
2018-01-05T03:42:41.714Z,19.31
2018-01-05T03:43:41.653Z,19.39
2018-01-05T03:44:41.634Z,19.32
2018-01-05T03:45:41.627Z,19.40
2018-01-05T03:46:41.615Z,19.37
2018-01-05T03:47:41.569Z,19.41
2018-01-05T03:48:41.572Z,19.31
2018-01-05T03:49:41.531Z,19.25
2018-01-05T03:50:41.529Z,19.22
2018-01-05T03:51:41.507Z,19.22
2018-01-05T03:52:41.475Z,19.23
2018-01-05T03:53:41.445Z,19.23
2018-01-05T03:54:41.465Z,19.21
2018-01-05T03:55:41.409Z,19.26
2018-01-05T03:56:41.387Z,19.23
2018-01-05T03:57:41.368Z,19.21
2018-01-05T03:58:41.349Z,19.23
2018-01-05T03:59:41.359Z,19.26
2018-01-05T04:00:41.324Z,19.21
2018-01-05T04:01:41.281Z,19.18
2018-01-05T04:02:41.336Z,19.21
2018-01-05T04:03:41.268Z,19.21
2018-01-05T04:04:41.254Z,19.21
2018-01-05T04:05:41.235Z,19.08
2018-01-05T04:06:41.185Z,19.16
2018-01-05T04:08:14.403Z,19.16
2018-01-05T04:08:41.139Z,19.08
2018-01-05T04:09:41.132Z,19.22
2018-01-05T04:10:41.100Z,19.11
2018-01-05T04:11:41.077Z,19.02
2018-01-05T04:12:41.093Z,19.07
2018-01-05T04:13:41.073Z,19.04
2018-01-05T04:14:41.012Z,19.13
2018-01-05T04:15:40.988Z,19.08
2018-01-05T04:16:41.004Z,19.07
2018-01-05T04:17:40.984Z,19.07
2018-01-05T04:18:40.964Z,19.07
2018-01-05T04:19:40.936Z,19.10
2018-01-05T04:20:40.920Z,19.06
2018-01-05T04:21:40.900Z,19.08
2018-01-05T04:22:40.880Z,19.02
2018-01-05T04:23:40.866Z,19.04
2018-01-05T04:24:40.807Z,19.08
2018-01-05T04:25:40.821Z,19.00
2018-01-05T04:26:40.796Z,19.04
2018-01-05T04:27:40.740Z,19.00
2018-01-05T04:28:40.743Z,19.07
2018-01-05T04:29:40.703Z,19.02
2018-01-05T04:30:40.684Z,19.04
2018-01-05T04:31:40.676Z,19.06
2018-01-05T04:32:40.642Z,19.04
2018-01-05T04:33:40.656Z,18.98
2018-01-05T04:34:40.617Z,18.98
2018-01-05T04:35:40.576Z,18.92
2018-01-05T04:36:40.787Z,18.92
2018-01-05T04:37:40.542Z,18.91
2018-01-05T04:38:40.512Z,18.91
2018-01-05T04:39:40.496Z,18.90
2018-01-05T04:40:40.505Z,18.87
2018-01-05T04:41:40.487Z,18.85
2018-01-05T04:42:40.451Z,18.85
2018-01-05T04:43:40.446Z,18.84
2018-01-05T04:44:40.423Z,18.81
2018-01-05T04:45:40.390Z,18.87
2018-01-05T04:46:40.353Z,18.81
2018-01-05T04:47:40.364Z,18.90
2018-01-05T04:48:40.330Z,18.84
2018-01-05T04:49:40.322Z,18.85
2018-01-05T04:50:40.299Z,18.81
2018-01-05T04:51:40.283Z,18.81
2018-01-05T04:52:40.260Z,18.76
2018-01-05T04:53:40.217Z,18.72
2018-01-05T04:54:40.184Z,18.69
2018-01-05T04:55:40.197Z,18.67
2018-01-05T04:56:40.178Z,18.66
2018-01-05T04:57:40.195Z,18.70
2018-01-05T04:58:40.137Z,18.81
2018-01-05T04:59:40.078Z,18.78
2018-01-05T05:00:40.065Z,18.72
2018-01-05T05:01:40.075Z,18.73
2018-01-05T05:02:40.052Z,18.70
2018-01-05T05:03:40.028Z,18.75
2018-01-05T05:04:40.011Z,18.69
2018-01-05T05:05:39.958Z,18.73
2018-01-05T05:06:39.933Z,18.72
2018-01-05T05:07:39.951Z,18.70
2018-01-05T05:08:39.928Z,18.63
2018-01-05T05:09:39.882Z,18.62
2018-01-05T05:10:39.853Z,18.65
2018-01-05T05:11:39.865Z,18.60
2018-01-05T05:12:39.841Z,18.60
2018-01-05T05:13:39.789Z,18.58
2018-01-05T05:14:39.802Z,18.62
2018-01-05T05:15:39.760Z,18.65
2018-01-05T05:16:39.728Z,18.62
2018-01-05T05:17:39.708Z,18.54
2018-01-05T05:18:39.718Z,18.54
2018-01-05T05:19:39.680Z,18.58
2018-01-05T05:20:39.676Z,18.63
2018-01-05T05:21:39.652Z,18.60
2018-01-05T05:22:39.636Z,18.54
2018-01-05T05:23:39.578Z,18.57
2018-01-05T05:24:39.577Z,18.50
2018-01-05T05:25:39.536Z,18.48
2018-01-05T05:26:39.552Z,18.45
2018-01-05T05:27:39.503Z,18.47
2018-01-05T05:28:39.486Z,18.52
2018-01-05T05:29:39.452Z,18.57
2018-01-05T05:30:39.452Z,18.50
2018-01-05T05:31:39.447Z,18.39
2018-01-05T05:32:39.424Z,18.55
2018-01-05T05:33:39.371Z,18.50
2018-01-05T05:34:39.363Z,18.37
2018-01-05T05:35:39.359Z,18.42
2018-01-05T05:36:39.311Z,18.33
2018-01-05T05:37:39.284Z,18.41
2018-01-05T05:38:39.285Z,18.39
2018-01-05T05:39:39.278Z,18.39
2018-01-05T05:40:39.223Z,18.36
2018-01-05T05:41:39.208Z,18.42
2018-01-05T05:42:39.183Z,18.32
2018-01-05T05:43:39.179Z,18.30
2018-01-05T05:44:39.136Z,18.35
2018-01-05T05:45:39.120Z,18.33
2018-01-05T05:46:39.099Z,18.32
2018-01-05T05:47:39.081Z,18.27
2018-01-05T05:48:39.054Z,18.29
2018-01-05T05:49:39.070Z,18.25
2018-01-05T05:50:39.015Z,18.25
2018-01-05T05:51:39.023Z,18.18
2018-01-05T05:52:39.002Z,18.27
2018-01-05T05:53:38.950Z,18.27
2018-01-05T05:54:38.959Z,18.20
2018-01-05T05:55:38.913Z,18.17
2018-01-05T05:56:38.920Z,18.18
2018-01-05T05:57:38.899Z,18.17
2018-01-05T05:58:38.876Z,18.11
2018-01-05T05:59:38.855Z,18.18
2018-01-05T06:00:38.820Z,18.15
2018-01-05T06:01:38.811Z,18.15
2018-01-05T06:02:38.791Z,18.15
2018-01-05T06:03:38.772Z,18.17
2018-01-05T06:04:38.747Z,18.15
2018-01-05T06:05:38.690Z,18.11
2018-01-05T06:06:38.677Z,18.07
2018-01-05T06:07:38.684Z,18.15
2018-01-05T06:08:38.631Z,18.05
2018-01-05T06:09:38.611Z,18.12
2018-01-05T06:10:38.595Z,18.14
2018-01-05T06:11:38.569Z,18.18
2018-01-05T06:12:38.548Z,18.21
2018-01-05T06:13:38.524Z,18.14
2018-01-05T06:14:38.501Z,18.03
2018-01-05T06:15:38.477Z,18.14
2018-01-05T06:16:38.458Z,18.12
2018-01-05T06:17:38.437Z,18.03
2018-01-05T06:18:38.425Z,18.03
2018-01-05T06:19:38.433Z,18.03
2018-01-05T06:20:38.379Z,17.97
2018-01-05T06:21:38.350Z,17.97
2018-01-05T06:22:38.329Z,17.87
2018-01-05T06:23:38.340Z,17.89
2018-01-05T06:24:38.325Z,17.99
2018-01-05T06:25:38.272Z,18.05
2018-01-05T06:26:38.263Z,18.03
2018-01-05T06:27:38.258Z,18.10
2018-01-05T06:28:38.203Z,18.08
2018-01-05T06:29:38.178Z,18.08
2018-01-05T06:30:38.161Z,18.11
2018-01-05T06:31:38.136Z,18.07
2018-01-05T06:32:38.113Z,18.03
2018-01-05T06:33:38.095Z,18.10
2018-01-05T06:34:38.108Z,18.07
2018-01-05T06:35:38.107Z,18.03
2018-01-05T06:36:38.042Z,18.02
2018-01-05T06:37:38.008Z,18.02
2018-01-05T06:38:37.984Z,17.99
2018-01-05T06:39:37.998Z,17.93
2018-01-05T06:40:37.940Z,17.92
2018-01-05T06:41:37.953Z,17.82
2018-01-05T06:42:37.931Z,17.87
2018-01-05T06:43:37.883Z,17.92
2018-01-05T06:44:37.886Z,17.90
2018-01-05T06:45:37.866Z,17.81
2018-01-05T06:46:37.847Z,17.74
2018-01-05T06:47:37.793Z,17.82
2018-01-05T06:48:37.767Z,17.84
2018-01-05T06:49:37.749Z,17.82
2018-01-05T06:50:37.753Z,17.78
2018-01-05T06:51:37.710Z,17.70
2018-01-05T06:52:37.718Z,17.75
2018-01-05T06:53:37.668Z,17.77
2018-01-05T06:54:37.673Z,17.75
2018-01-05T06:55:37.631Z,17.84
2018-01-05T06:56:37.636Z,17.82
2018-01-05T06:57:37.576Z,17.82
2018-01-05T06:58:37.556Z,17.79
2018-01-05T06:59:37.573Z,17.77
2018-01-05T07:00:37.547Z,17.79
2018-01-05T07:01:37.493Z,17.78
2018-01-05T07:02:37.508Z,17.70
2018-01-05T07:03:37.451Z,17.70
2018-01-05T07:04:37.446Z,17.70
2018-01-05T07:05:37.424Z,17.68
2018-01-05T07:06:37.398Z,17.70
2018-01-05T07:07:37.377Z,17.68
2018-01-05T07:08:37.339Z,17.64
2018-01-05T07:09:37.322Z,17.59
2018-01-05T07:10:37.316Z,17.66
2018-01-05T07:11:37.297Z,17.64
2018-01-05T07:12:37.276Z,17.56
2018-01-05T07:13:37.254Z,17.58
2018-01-05T07:14:37.211Z,17.62
2018-01-05T07:15:37.192Z,17.68
2018-01-05T07:16:37.172Z,17.68
2018-01-05T07:17:37.146Z,17.72
2018-01-05T07:18:37.143Z,17.63
2018-01-05T07:19:37.118Z,17.64
2018-01-05T07:20:37.082Z,17.77
2018-01-05T07:21:37.063Z,17.74
2018-01-05T07:22:37.046Z,17.72
2018-01-05T07:23:37.049Z,17.66
2018-01-05T07:24:37.030Z,17.66
2018-01-05T07:25:37.010Z,17.68
2018-01-05T07:26:36.974Z,17.72
2018-01-05T07:27:36.967Z,17.66
2018-01-05T07:28:36.912Z,17.70
2018-01-05T07:29:36.925Z,17.72
2018-01-05T07:30:36.881Z,17.62
2018-01-05T07:31:36.846Z,17.62
2018-01-05T07:32:36.850Z,17.66
2018-01-05T07:33:36.825Z,17.55
2018-01-05T07:34:36.780Z,17.55
2018-01-05T07:35:36.774Z,17.55
2018-01-05T07:36:36.777Z,17.58
2018-01-05T07:37:36.749Z,17.62
2018-01-05T07:38:36.698Z,17.58
2018-01-05T07:39:36.689Z,17.52
2018-01-05T07:40:36.651Z,17.51
2018-01-05T07:41:36.667Z,17.48
2018-01-05T07:42:36.612Z,17.51
2018-01-05T07:43:36.622Z,17.43
2018-01-05T07:44:36.605Z,17.46
2018-01-05T07:45:36.576Z,17.48
2018-01-05T07:46:36.518Z,17.41
2018-01-05T07:47:36.500Z,17.46
2018-01-05T07:48:36.518Z,17.46
2018-01-05T07:49:36.458Z,17.55
2018-01-05T07:50:36.436Z,17.63
2018-01-05T07:51:36.449Z,17.75
2018-01-05T07:52:36.548Z,17.77
2018-01-05T07:53:36.373Z,17.75
2018-01-05T07:54:36.367Z,17.79
2018-01-05T07:55:36.345Z,17.79
2018-01-05T07:56:36.341Z,17.81
2018-01-05T07:57:36.317Z,17.72
2018-01-05T07:58:36.281Z,17.74
2018-01-05T07:59:36.241Z,17.66
2018-01-05T08:00:36.251Z,17.70
2018-01-05T08:01:36.205Z,17.70
2018-01-05T08:02:36.213Z,17.63
2018-01-05T08:03:36.188Z,17.58
2018-01-05T08:04:36.152Z,17.59
2018-01-05T08:05:36.128Z,17.54
2018-01-05T08:06:36.096Z,17.58
2018-01-05T08:07:36.086Z,17.62
2018-01-05T08:08:36.044Z,17.52
2018-01-05T08:09:36.058Z,17.66
2018-01-05T08:10:36.014Z,17.70
2018-01-05T08:11:35.985Z,17.63
2018-01-05T08:12:35.960Z,17.63
2018-01-05T08:13:35.975Z,17.56
2018-01-05T08:14:35.950Z,17.48
2018-01-05T08:15:35.925Z,17.52
2018-01-05T08:16:35.873Z,17.49
2018-01-05T08:17:35.873Z,17.52
2018-01-05T08:18:35.833Z,17.40
2018-01-05T08:19:35.842Z,17.46
2018-01-05T08:20:35.785Z,17.43
2018-01-05T08:21:35.795Z,17.40
2018-01-05T08:22:35.779Z,17.48
2018-01-05T08:23:35.718Z,17.51
2018-01-05T08:24:35.712Z,17.44
2018-01-05T08:25:35.681Z,17.48
2018-01-05T08:26:35.666Z,17.44
2018-01-05T08:27:35.672Z,17.44
2018-01-05T08:28:35.609Z,17.41
2018-01-05T08:29:35.608Z,17.46
2018-01-05T08:30:35.564Z,17.58
2018-01-05T08:31:35.581Z,17.55
2018-01-05T08:32:35.525Z,17.63
2018-01-05T08:33:35.505Z,17.54
2018-01-05T08:34:35.516Z,17.62
2018-01-05T08:35:35.457Z,17.68
2018-01-05T08:36:35.455Z,17.64
2018-01-05T08:37:35.419Z,17.70
2018-01-05T08:38:35.394Z,17.78
2018-01-05T08:39:35.406Z,17.82
2018-01-05T08:40:35.349Z,17.81
2018-01-05T08:41:35.328Z,17.77
2018-01-05T08:42:35.319Z,17.86
2018-01-05T08:43:35.316Z,17.84
2018-01-05T08:44:35.264Z,17.96
2018-01-05T08:45:35.242Z,17.93
2018-01-05T08:46:35.260Z,18.02
2018-01-05T08:47:35.201Z,17.95
2018-01-05T08:48:35.177Z,17.96
2018-01-05T08:49:35.187Z,18.02
2018-01-05T08:50:35.153Z,18.11
2018-01-05T08:51:35.114Z,18.07
2018-01-05T08:52:35.091Z,17.99
2018-01-05T08:53:35.113Z,18.15
2018-01-05T08:54:35.047Z,18.17
2018-01-05T08:55:35.057Z,18.17
2018-01-05T08:56:35.023Z,18.30
2018-01-05T08:57:35.018Z,18.27
2018-01-05T08:58:34.993Z,18.45
2018-01-05T08:59:34.974Z,18.52
2018-01-05T09:00:34.918Z,18.65
2018-01-05T09:01:34.897Z,18.66
2018-01-05T09:02:34.914Z,18.72
2018-01-05T09:03:34.885Z,18.75
2018-01-05T09:04:34.864Z,18.75
2018-01-05T09:05:34.849Z,18.66
2018-01-05T09:06:34.809Z,18.80
2018-01-05T09:07:34.800Z,18.82
2018-01-05T09:08:34.751Z,18.85
2018-01-05T09:09:34.762Z,18.82
2018-01-05T09:10:34.704Z,18.73
2018-01-05T09:11:34.715Z,18.69
2018-01-05T09:12:34.682Z,18.67
2018-01-05T09:13:34.662Z,18.72
2018-01-05T09:14:34.623Z,18.75
2018-01-05T09:15:34.638Z,18.85
2018-01-05T09:16:34.614Z,18.88
2018-01-05T09:17:34.593Z,18.85
2018-01-05T09:18:34.558Z,18.84
2018-01-05T09:19:34.514Z,18.84
2018-01-05T09:20:34.508Z,18.87
2018-01-05T09:21:34.487Z,18.92
2018-01-05T09:22:34.457Z,18.90
2018-01-05T09:23:34.445Z,19.00
2018-01-05T09:24:34.412Z,18.98
2018-01-05T09:25:34.403Z,19.04
2018-01-05T09:26:34.385Z,18.95
2018-01-05T09:27:34.346Z,18.94
2018-01-05T09:28:34.329Z,19.08
2018-01-05T09:29:34.304Z,19.25
2018-01-05T09:30:34.322Z,19.22
2018-01-05T09:31:34.262Z,19.25
2018-01-05T09:32:34.246Z,19.28
2018-01-05T09:33:34.239Z,19.36
2018-01-05T09:34:34.201Z,19.40
2018-01-05T09:35:34.180Z,19.63
2018-01-05T09:36:34.192Z,19.84
2018-01-05T09:37:34.172Z,20.20
2018-01-05T09:38:34.123Z,20.41
2018-01-05T09:39:34.119Z,20.48
2018-01-05T09:40:34.113Z,20.51
2018-01-05T09:41:34.062Z,20.50
2018-01-05T09:42:34.035Z,20.57
2018-01-05T09:43:34.039Z,20.55
2018-01-05T09:44:34.006Z,20.79
2018-01-05T09:45:34.012Z,20.95
2018-01-05T09:46:33.978Z,21.07
2018-01-05T09:47:33.975Z,21.04
2018-01-05T09:48:33.924Z,21.12
2018-01-05T09:49:33.903Z,21.22
2018-01-05T09:50:33.886Z,21.16
2018-01-05T09:51:33.864Z,21.19
2018-01-05T09:52:33.880Z,21.32
2018-01-05T09:53:33.826Z,21.37
2018-01-05T09:54:33.815Z,21.38
2018-01-05T09:55:33.805Z,21.35
2018-01-05T09:56:33.808Z,21.42
2018-01-05T09:57:33.784Z,21.37
2018-01-05T09:58:33.765Z,21.29
2018-01-05T09:59:33.727Z,21.40
2018-01-05T10:00:33.698Z,21.54
2018-01-05T10:01:33.680Z,21.88
2018-01-05T10:02:33.658Z,22.25
2018-01-05T10:03:33.640Z,22.27
2018-01-05T10:04:33.642Z,22.55
2018-01-05T10:05:33.624Z,22.49
2018-01-05T10:06:33.588Z,22.27
2018-01-05T10:07:33.571Z,22.18
2018-01-05T10:08:33.552Z,22.06
2018-01-05T10:09:33.568Z,22.24
2018-01-05T10:10:33.515Z,22.05
2018-01-05T10:11:33.531Z,21.84
2018-01-05T10:12:33.482Z,21.94
2018-01-05T10:13:33.487Z,22.03
2018-01-05T10:14:33.448Z,22.21
2018-01-05T10:15:33.429Z,22.27
2018-01-05T10:16:33.415Z,22.20
2018-01-05T10:17:33.430Z,22.18
2018-01-05T10:18:33.380Z,22.12
2018-01-05T10:19:33.377Z,22.33
2018-01-05T10:20:33.379Z,22.39
2018-01-05T10:21:33.363Z,22.60
2018-01-05T10:22:33.313Z,22.76
2018-01-05T10:23:33.331Z,22.62
2018-01-05T10:24:33.281Z,22.49
2018-01-05T10:25:33.293Z,22.57
2018-01-05T10:26:33.270Z,22.47
2018-01-05T10:27:33.229Z,22.61
2018-01-05T10:28:33.241Z,22.98
2018-01-05T10:29:33.208Z,23.16
2018-01-05T10:30:33.184Z,23.36
2018-01-05T10:31:33.194Z,23.36
2018-01-05T10:32:33.178Z,23.54
2018-01-05T10:33:33.161Z,23.55
2018-01-05T10:34:33.123Z,23.76
2018-01-05T10:35:33.096Z,23.90
2018-01-05T10:36:33.116Z,24.20
2018-01-05T10:37:33.101Z,24.18
2018-01-05T10:38:33.050Z,24.21
2018-01-05T10:39:33.033Z,24.12
2018-01-05T10:40:33.055Z,24.30
2018-01-05T10:41:33.000Z,24.30
2018-01-05T10:42:33.034Z,24.21
2018-01-05T10:43:33.000Z,24.00
2018-01-05T10:44:32.987Z,23.95
2018-01-05T10:45:32.937Z,24.20
2018-01-05T10:46:33.505Z,24.24
2018-01-05T10:47:32.905Z,24.09
2018-01-05T10:48:32.893Z,24.13
2018-01-05T10:49:32.894Z,23.84
2018-01-05T10:50:32.886Z,23.63
2018-01-05T10:51:32.862Z,23.72
2018-01-05T10:52:32.832Z,23.73
2018-01-05T10:53:32.834Z,23.58
2018-01-05T10:54:32.820Z,23.80
2018-01-05T10:55:32.789Z,24.02
2018-01-05T10:56:32.787Z,23.90
2018-01-05T10:57:32.770Z,24.00
2018-01-05T10:58:32.772Z,24.12
2018-01-05T10:59:32.732Z,24.22
2018-01-05T11:00:32.741Z,24.34
2018-01-05T11:01:32.725Z,24.67
2018-01-05T11:02:32.695Z,25.23
2018-01-05T11:03:32.683Z,25.55
2018-01-05T11:04:32.646Z,25.30
2018-01-05T11:05:32.670Z,25.33
2018-01-05T11:06:32.618Z,25.36
2018-01-05T11:07:32.614Z,25.33
2018-01-05T11:08:32.624Z,24.96
2018-01-05T11:09:32.619Z,24.71
2018-01-05T11:10:32.585Z,24.83
2018-01-05T11:11:32.590Z,24.98
2018-01-05T11:12:32.559Z,25.36
2018-01-05T11:13:32.524Z,25.95
2018-01-05T11:14:32.541Z,26.51
2018-01-05T11:15:32.529Z,26.48
2018-01-05T11:16:32.482Z,26.32
2018-01-05T11:17:32.467Z,25.99
2018-01-05T11:18:32.456Z,26.05
2018-01-05T11:19:32.477Z,26.28
2018-01-05T11:20:32.434Z,26.39
2018-01-05T11:21:32.414Z,26.69
2018-01-05T11:22:32.421Z,26.89
2018-01-05T11:23:32.388Z,27.22
2018-01-05T11:24:32.410Z,27.65
2018-01-05T11:25:32.362Z,27.78
2018-01-05T11:26:32.351Z,27.69
2018-01-05T11:27:32.372Z,27.66
2018-01-05T11:28:32.340Z,27.50
2018-01-05T11:29:32.329Z,27.36
2018-01-05T11:30:32.323Z,27.36
2018-01-05T11:31:32.304Z,27.74
2018-01-05T11:32:32.301Z,27.88
2018-01-05T11:33:32.270Z,28.07
2018-01-05T11:34:32.253Z,28.07
2018-01-05T11:35:32.238Z,28.17
2018-01-05T11:36:32.271Z,27.96
2018-01-05T11:37:32.221Z,28.03
2018-01-05T11:38:32.211Z,28.15
2018-01-05T11:39:32.232Z,28.11
2018-01-05T11:40:32.213Z,28.06
2018-01-05T11:41:32.207Z,27.69
2018-01-05T11:42:32.183Z,27.69
2018-01-05T11:43:32.153Z,27.85
2018-01-05T11:44:32.150Z,28.00
2018-01-05T11:45:32.131Z,27.84
2018-01-05T11:46:32.125Z,27.99
2018-01-05T11:47:32.111Z,27.79
2018-01-05T11:48:32.132Z,27.34
2018-01-05T11:49:32.092Z,26.97
2018-01-05T11:50:32.141Z,26.81
2018-01-05T11:51:32.102Z,26.62
2018-01-05T11:52:32.096Z,26.40
2018-01-05T11:53:32.049Z,26.20
2018-01-05T11:54:32.054Z,25.91
2018-01-05T11:55:32.068Z,25.80
2018-01-05T11:56:32.017Z,25.91
2018-01-05T11:57:32.036Z,26.12
2018-01-05T11:58:32.022Z,26.26
2018-01-05T11:59:31.996Z,26.32
2018-01-05T12:00:31.966Z,26.10
2018-01-05T12:01:31.990Z,25.72
2018-01-05T12:02:31.940Z,25.50
2018-01-05T12:03:31.934Z,25.50
2018-01-05T12:04:31.927Z,25.35
2018-01-05T12:05:31.964Z,25.30
2018-01-05T12:06:31.930Z,25.38
2018-01-05T12:07:31.887Z,25.62
2018-01-05T12:08:31.905Z,25.85
2018-01-05T12:09:31.893Z,25.82
2018-01-05T12:10:31.884Z,26.02
2018-01-05T12:11:31.871Z,26.23
2018-01-05T12:12:31.821Z,26.57
2018-01-05T12:13:31.832Z,26.87
2018-01-05T12:14:31.816Z,27.04
2018-01-05T12:15:31.813Z,27.27
2018-01-05T12:16:31.781Z,27.28
2018-01-05T12:17:31.792Z,27.34
2018-01-05T12:18:31.769Z,27.02
2018-01-05T12:19:31.744Z,26.69
2018-01-05T12:20:31.734Z,26.75
2018-01-05T12:21:31.761Z,26.57
2018-01-05T12:22:31.715Z,26.63
2018-01-05T12:23:31.716Z,26.54
2018-01-05T12:24:31.724Z,26.63
2018-01-05T12:25:31.679Z,26.60
2018-01-05T12:26:31.685Z,26.43
2018-01-05T12:27:31.687Z,26.48
2018-01-05T12:28:31.680Z,26.52
2018-01-05T12:29:31.648Z,26.66
2018-01-05T12:30:31.622Z,26.72
2018-01-05T12:31:31.611Z,27.13
2018-01-05T12:32:31.634Z,27.34
2018-01-05T12:33:31.629Z,27.62
2018-01-05T12:34:31.578Z,27.77
2018-01-05T12:35:31.570Z,28.03
2018-01-05T12:36:31.597Z,28.15
2018-01-05T12:37:31.579Z,28.11
2018-01-05T12:38:31.540Z,27.90
2018-01-05T12:39:31.528Z,27.50
2018-01-05T12:40:31.552Z,27.25
2018-01-05T12:41:31.557Z,27.37
2018-01-05T12:42:31.497Z,27.46
2018-01-05T12:43:31.486Z,27.32
2018-01-05T12:44:31.478Z,27.39
2018-01-05T12:45:31.462Z,27.47
2018-01-05T12:46:31.476Z,27.24
2018-01-05T12:47:31.996Z,27.28
2018-01-05T12:48:31.451Z,27.72
2018-01-05T12:49:31.459Z,28.22
2018-01-05T12:50:31.430Z,28.73
2018-01-05T12:51:31.440Z,28.56
2018-01-05T12:52:31.433Z,28.29